Terminal Aerodrome Forecast
Issued by NWS Charleston, WV

Current Version | Previous Version | Graphics & Text | Print | Product List | Glossary On
Versions: 1 2 3 4 5 6 7 8 9 10 11 12 13 14 15 16 17 18 19 20 21 22 23 24
795
FTUS41 KRLX 242321 AAB
TAFCRW
TAF AMD
KCRW 242321Z 2423/2518 21010KT P6SM BKN090 BKN250
     FM250400 VRB03KT P6SM SCT045
     FM250700 VRB03KT P6SM BKN040=

USA.gov is the U.S. government's official web portal to all federal, state and local government web resources and services.